createdAt,value
2018-09-18T00:00:18.313Z,1009.04
2018-09-18T00:01:18.286Z,1009.04
2018-09-18T00:02:18.282Z,1009.05
2018-09-18T00:03:18.255Z,1009.06
2018-09-18T00:04:18.236Z,1009.03
2018-09-18T00:05:18.224Z,1008.98
2018-09-18T00:06:18.205Z,1009.02
2018-09-18T00:07:18.195Z,1008.98
2018-09-18T00:08:18.173Z,1009.01
2018-09-18T00:09:18.157Z,1008.99
2018-09-18T00:10:18.145Z,1009.00
2018-09-18T00:11:18.126Z,1008.95
2018-09-18T00:12:18.107Z,1008.92
2018-09-18T00:13:18.151Z,1008.92
2018-09-18T00:14:18.074Z,1008.93
2018-09-18T00:15:18.062Z,1008.87
2018-09-18T00:16:18.105Z,1008.90
2018-09-18T00:17:18.033Z,1008.86
2018-09-18T00:18:18.013Z,1008.87
2018-09-18T00:19:17.996Z,1008.82
2018-09-18T00:20:17.984Z,1008.82
2018-09-18T00:21:17.969Z,1008.85
2018-09-18T00:22:17.945Z,1008.83
2018-09-18T00:23:17.938Z,1008.83
2018-09-18T00:24:17.911Z,1008.85
2018-09-18T00:25:17.896Z,1008.83
2018-09-18T00:26:17.881Z,1008.81
2018-09-18T00:27:17.870Z,1008.85
2018-09-18T00:28:17.853Z,1008.79
2018-09-18T00:29:17.838Z,1008.80
2018-09-18T00:30:17.830Z,1008.82
2018-09-18T00:31:17.800Z,1008.79
2018-09-18T00:32:17.898Z,1008.78
2018-09-18T00:33:17.765Z,1008.78
2018-09-18T00:34:17.758Z,1008.79
2018-09-18T00:35:17.740Z,1008.80
2018-09-18T00:36:17.721Z,1008.81
2018-09-18T00:37:17.700Z,1008.80
2018-09-18T00:38:17.688Z,1008.79
2018-09-18T00:39:17.669Z,1008.79
2018-09-18T00:40:17.652Z,1008.79
2018-09-18T00:41:17.637Z,1008.77
2018-09-18T00:42:17.620Z,1008.74
2018-09-18T00:43:17.602Z,1008.74
2018-09-18T00:44:17.588Z,1008.75
2018-09-18T00:45:17.572Z,1008.73
2018-09-18T00:46:17.554Z,1008.72
2018-09-18T00:47:17.538Z,1008.70
2018-09-18T00:48:17.525Z,1008.74
2018-09-18T00:49:17.507Z,1008.72
2018-09-18T00:50:17.488Z,1008.70
2018-09-18T00:51:17.475Z,1008.67
2018-09-18T00:52:17.453Z,1008.67
2018-09-18T00:53:17.438Z,1008.66
2018-09-18T00:54:17.423Z,1008.67
2018-09-18T00:55:17.421Z,1008.65
2018-09-18T00:56:17.531Z,1008.65
2018-09-18T00:57:17.381Z,1008.63
2018-09-18T00:58:17.358Z,1008.60
2018-09-18T00:59:17.447Z,1008.56
2018-09-18T01:00:17.327Z,1008.57
2018-09-18T01:01:17.308Z,1008.60
2018-09-18T01:02:17.342Z,1008.58
2018-09-18T01:03:17.280Z,1008.60
2018-09-18T01:04:17.264Z,1008.58
2018-09-18T01:05:17.241Z,1008.60
2018-09-18T01:06:17.227Z,1008.54
2018-09-18T01:07:17.211Z,1008.52
2018-09-18T01:08:17.193Z,1008.56
2018-09-18T01:09:17.177Z,1008.55
2018-09-18T01:10:17.160Z,1008.53
2018-09-18T01:11:17.149Z,1008.52
2018-09-18T01:12:17.128Z,1008.51
2018-09-18T01:13:17.115Z,1008.49
2018-09-18T01:14:17.099Z,1008.49
2018-09-18T01:15:17.199Z,1008.49
2018-09-18T01:16:17.065Z,1008.47
2018-09-18T01:17:17.047Z,1008.50
2018-09-18T01:18:17.030Z,1008.45
2018-09-18T01:19:17.017Z,1008.47
2018-09-18T01:20:16.997Z,1008.46
2018-09-18T01:21:16.981Z,1008.44
2018-09-18T01:22:16.965Z,1008.45
2018-09-18T01:23:16.946Z,1008.45
2018-09-18T01:24:16.940Z,1008.44
2018-09-18T01:25:16.914Z,1008.43
2018-09-18T01:26:16.896Z,1008.43
2018-09-18T01:27:16.886Z,1008.42
2018-09-18T01:28:16.881Z,1008.39
2018-09-18T01:29:16.848Z,1008.38
2018-09-18T01:30:16.832Z,1008.41
2018-09-18T01:31:16.818Z,1008.42
2018-09-18T01:32:16.799Z,1008.38
2018-09-18T01:33:16.785Z,1008.41
2018-09-18T01:34:16.927Z,1008.43
2018-09-18T01:35:16.748Z,1008.40
2018-09-18T01:36:16.735Z,1008.40
2018-09-18T01:37:16.719Z,1008.38
2018-09-18T01:38:16.699Z,1008.38
2018-09-18T01:39:16.687Z,1008.41
2018-09-18T01:40:16.666Z,1008.37
2018-09-18T01:41:16.650Z,1008.37
2018-09-18T01:42:16.636Z,1008.40
2018-09-18T01:43:16.623Z,1008.38
2018-09-18T01:44:16.620Z,1008.37
2018-09-18T01:45:16.601Z,1008.36
2018-09-18T01:46:16.573Z,1008.36
2018-09-18T01:47:16.555Z,1008.34
2018-09-18T01:48:16.536Z,1008.38
2018-09-18T01:49:16.527Z,1008.35
2018-09-18T01:50:16.504Z,1008.36
2018-09-18T01:51:16.487Z,1008.36
2018-09-18T01:52:16.468Z,1008.30
2018-09-18T01:53:16.452Z,1008.37
2018-09-18T01:54:16.437Z,1008.33
2018-09-18T01:55:16.423Z,1008.30
2018-09-18T01:56:16.402Z,1008.29
2018-09-18T01:57:16.385Z,1008.30
2018-09-18T01:58:16.372Z,1008.26
2018-09-18T01:59:16.364Z,1008.30
2018-09-18T02:00:16.340Z,1008.30
2018-09-18T02:01:16.446Z,1008.26
2018-09-18T02:02:16.312Z,1008.25
2018-09-18T02:03:16.287Z,1008.25
2018-09-18T02:04:16.382Z,1008.24
2018-09-18T02:05:49.469Z,1008.22
2018-09-18T02:06:16.242Z,1008.22
2018-09-18T02:07:16.224Z,1008.22
2018-09-18T02:08:16.208Z,1008.23
2018-09-18T02:09:16.193Z,1008.23
2018-09-18T02:10:16.173Z,1008.17
2018-09-18T02:11:16.159Z,1008.20
2018-09-18T02:12:16.159Z,1008.21
2018-09-18T02:13:16.125Z,1008.19
2018-09-18T02:14:16.113Z,1008.22
2018-09-18T02:15:16.094Z,1008.27
2018-09-18T02:16:16.075Z,1008.23
2018-09-18T02:17:16.058Z,1008.21
2018-09-18T02:18:16.047Z,1008.23
2018-09-18T02:19:16.024Z,1008.23
2018-09-18T02:20:16.015Z,1008.19
2018-09-18T02:21:15.992Z,1008.22
2018-09-18T02:22:15.976Z,1008.16
2018-09-18T02:23:15.962Z,1008.21
2018-09-18T02:24:15.944Z,1008.23
2018-09-18T02:25:15.929Z,1008.18
2018-09-18T02:26:15.912Z,1008.21
2018-09-18T02:27:15.896Z,1008.21
2018-09-18T02:28:15.898Z,1008.19
2018-09-18T02:29:15.861Z,1008.18
2018-09-18T02:30:15.844Z,1008.14
2018-09-18T02:31:15.931Z,1008.15
2018-09-18T02:32:15.822Z,1008.14
2018-09-18T02:33:15.794Z,1008.17
2018-09-18T02:34:15.775Z,1008.14
2018-09-18T02:35:15.762Z,1008.17
2018-09-18T02:36:15.755Z,1008.12
2018-09-18T02:37:15.726Z,1008.12
2018-09-18T02:38:15.711Z,1008.14
2018-09-18T02:39:15.694Z,1008.10
2018-09-18T02:40:15.687Z,1008.11
2018-09-18T02:41:15.662Z,1008.08
2018-09-18T02:42:15.643Z,1008.09
2018-09-18T02:43:15.629Z,1008.09
2018-09-18T02:44:15.612Z,1008.07
2018-09-18T02:45:15.593Z,1008.08
2018-09-18T02:46:15.580Z,1008.05
2018-09-18T02:47:15.558Z,1008.05
2018-09-18T02:48:15.545Z,1008.05
2018-09-18T02:49:15.526Z,1008.08
2018-09-18T02:50:15.567Z,1008.01
2018-09-18T02:51:15.495Z,1008.01
2018-09-18T02:52:15.480Z,1007.97
2018-09-18T02:53:15.461Z,1007.96
2018-09-18T02:54:15.443Z,1008.00
2018-09-18T02:55:15.431Z,1007.98
2018-09-18T02:56:15.410Z,1007.97
2018-09-18T02:57:15.394Z,1007.99
2018-09-18T02:58:15.383Z,1007.97
2018-09-18T02:59:15.361Z,1007.95
2018-09-18T03:00:15.343Z,1007.96
2018-09-18T03:01:15.325Z,1007.99
2018-09-18T03:02:15.312Z,1007.96
2018-09-18T03:03:15.298Z,1007.96
2018-09-18T03:04:15.287Z,1007.95
2018-09-18T03:05:15.260Z,1007.96
2018-09-18T03:06:15.370Z,1007.90
2018-09-18T03:07:15.236Z,1007.93
2018-09-18T03:08:15.211Z,1007.89
2018-09-18T03:09:15.196Z,1007.88
2018-09-18T03:10:15.184Z,1007.88
2018-09-18T03:11:15.180Z,1007.88
2018-09-18T03:12:15.147Z,1007.86
2018-09-18T03:13:15.128Z,1007.87
2018-09-18T03:14:15.110Z,1007.86
2018-09-18T03:15:15.102Z,1007.86
2018-09-18T03:16:15.082Z,1007.84
2018-09-18T03:17:15.166Z,1007.82
2018-09-18T03:18:15.048Z,1007.81
2018-09-18T03:19:15.030Z,1007.84
2018-09-18T03:20:15.024Z,1007.82
2018-09-18T03:21:15.000Z,1007.78
2018-09-18T03:22:14.982Z,1007.81
2018-09-18T03:23:14.961Z,1007.79
2018-09-18T03:24:14.951Z,1007.79
2018-09-18T03:25:14.930Z,1007.78
2018-09-18T03:26:14.912Z,1007.78
2018-09-18T03:27:14.947Z,1007.75
2018-09-18T03:28:14.878Z,1007.72
2018-09-18T03:29:14.862Z,1007.72
2018-09-18T03:30:14.860Z,1007.71
2018-09-18T03:31:14.832Z,1007.70
2018-09-18T03:32:14.816Z,1007.73
2018-09-18T03:33:14.800Z,1007.72
2018-09-18T03:34:14.788Z,1007.69
2018-09-18T03:35:14.762Z,1007.72
2018-09-18T03:36:14.898Z,1007.70
2018-09-18T03:37:14.731Z,1007.71
2018-09-18T03:38:14.717Z,1007.66
2018-09-18T03:39:14.695Z,1007.66
2018-09-18T03:40:14.679Z,1007.68
2018-09-18T03:41:14.666Z,1007.64
2018-09-18T03:42:14.646Z,1007.64
2018-09-18T03:43:14.628Z,1007.64
2018-09-18T03:44:14.616Z,1007.59
2018-09-18T03:45:14.599Z,1007.56
2018-09-18T03:46:14.589Z,1007.56
2018-09-18T03:47:14.571Z,1007.58
2018-09-18T03:48:14.546Z,1007.56
2018-09-18T03:49:14.533Z,1007.56
2018-09-18T03:50:14.512Z,1007.53
2018-09-18T03:51:14.498Z,1007.55
2018-09-18T03:52:14.478Z,1007.55
2018-09-18T03:53:14.462Z,1007.53
2018-09-18T03:54:14.446Z,1007.57
2018-09-18T03:55:14.442Z,1007.57
2018-09-18T03:56:14.421Z,1007.58
2018-09-18T03:57:14.400Z,1007.58
2018-09-18T03:58:14.387Z,1007.60
2018-09-18T03:59:14.365Z,1007.56
2018-09-18T04:00:14.347Z,1007.57
2018-09-18T04:01:14.329Z,1007.53
2018-09-18T04:02:14.314Z,1007.56
2018-09-18T04:03:14.315Z,1007.53
2018-09-18T04:04:14.278Z,1007.56
2018-09-18T04:05:14.289Z,1007.57
2018-09-18T04:06:14.257Z,1007.54
2018-09-18T04:07:14.233Z,1007.54
2018-09-18T04:08:14.216Z,1007.53
2018-09-18T04:09:14.197Z,1007.50
2018-09-18T04:10:14.191Z,1007.50
2018-09-18T04:11:14.174Z,1007.47
2018-09-18T04:12:14.150Z,1007.49
2018-09-18T04:13:14.130Z,1007.48
2018-09-18T04:14:14.123Z,1007.48
2018-09-18T04:15:14.095Z,1007.47
2018-09-18T04:16:14.075Z,1007.46
2018-09-18T04:17:14.080Z,1007.46
2018-09-18T04:18:14.047Z,1007.43
2018-09-18T04:19:14.029Z,1007.43
2018-09-18T04:20:14.011Z,1007.43
2018-09-18T04:21:13.995Z,1007.39
2018-09-18T04:22:13.995Z,1007.40
2018-09-18T04:23:13.963Z,1007.38
2018-09-18T04:24:13.948Z,1007.40
2018-09-18T04:25:13.931Z,1007.36
2018-09-18T04:26:13.922Z,1007.38
2018-09-18T04:27:13.896Z,1007.38
2018-09-18T04:28:13.880Z,1007.34
2018-09-18T04:29:13.861Z,1007.32
2018-09-18T04:30:13.852Z,1007.36
2018-09-18T04:31:13.835Z,1007.37
2018-09-18T04:32:13.811Z,1007.34
2018-09-18T04:33:13.796Z,1007.32
2018-09-18T04:34:13.781Z,1007.35
2018-09-18T04:35:13.760Z,1007.32
2018-09-18T04:36:13.754Z,1007.30
2018-09-18T04:37:13.731Z,1007.30
2018-09-18T04:38:13.711Z,1007.28
2018-09-18T04:39:13.705Z,1007.27
2018-09-18T04:40:13.681Z,1007.28
2018-09-18T04:41:13.662Z,1007.26
2018-09-18T04:42:13.649Z,1007.26
2018-09-18T04:43:13.638Z,1007.30
2018-09-18T04:44:13.610Z,1007.24
2018-09-18T04:45:13.593Z,1007.26
2018-09-18T04:46:13.585Z,1007.22
2018-09-18T04:47:13.569Z,1007.20
2018-09-18T04:48:13.551Z,1007.19
2018-09-18T04:49:13.527Z,1007.23
2018-09-18T04:50:13.511Z,1007.22
2018-09-18T04:51:13.496Z,1007.27
2018-09-18T04:52:13.480Z,1007.22
2018-09-18T04:53:13.470Z,1007.23
2018-09-18T04:54:13.451Z,1007.22
2018-09-18T04:55:13.428Z,1007.23
2018-09-18T04:56:13.412Z,1007.25
2018-09-18T04:57:13.395Z,1007.26
2018-09-18T04:58:13.376Z,1007.24
2018-09-18T04:59:13.359Z,1007.26
2018-09-18T05:00:13.343Z,1007.22
2018-09-18T05:01:13.328Z,1007.24
2018-09-18T05:02:13.350Z,1007.21
2018-09-18T05:03:13.289Z,1007.19
2018-09-18T05:04:13.272Z,1007.18
2018-09-18T05:05:13.262Z,1007.22
2018-09-18T05:06:13.248Z,1007.20
2018-09-18T05:07:13.226Z,1007.21
2018-09-18T05:08:13.212Z,1007.19
2018-09-18T05:09:13.281Z,1007.18
2018-09-18T05:10:13.172Z,1007.17
2018-09-18T05:11:13.165Z,1007.17
2018-09-18T05:12:13.139Z,1007.16
2018-09-18T05:13:13.125Z,1007.19
2018-09-18T05:14:13.102Z,1007.17
2018-09-18T05:15:13.088Z,1007.18
2018-09-18T05:16:13.071Z,1007.17
2018-09-18T05:17:13.052Z,1007.18
2018-09-18T05:18:13.036Z,1007.17
2018-09-18T05:19:13.019Z,1007.16
2018-09-18T05:20:13.003Z,1007.16
2018-09-18T05:21:12.985Z,1007.15
2018-09-18T05:22:12.967Z,1007.13
2018-09-18T05:23:12.951Z,1007.12
2018-09-18T05:24:12.969Z,1007.14
2018-09-18T05:25:12.917Z,1007.12
2018-09-18T05:26:12.899Z,1007.15
2018-09-18T05:27:12.990Z,1007.10
2018-09-18T05:28:12.874Z,1007.12
2018-09-18T05:29:12.852Z,1007.12
2018-09-18T05:30:12.845Z,1007.13
2018-09-18T05:31:12.818Z,1007.10
2018-09-18T05:32:12.799Z,1007.12
2018-09-18T05:33:12.782Z,1007.15
2018-09-18T05:34:12.764Z,1007.08
2018-09-18T05:35:12.764Z,1007.13
2018-09-18T05:36:12.730Z,1007.16
2018-09-18T05:37:12.716Z,1007.15
2018-09-18T05:38:12.705Z,1007.14
2018-09-18T05:39:12.682Z,1007.17
2018-09-18T05:40:12.664Z,1007.14
2018-09-18T05:41:12.645Z,1007.16
2018-09-18T05:42:12.629Z,1007.16
2018-09-18T05:43:12.613Z,1007.14
2018-09-18T05:44:12.603Z,1007.13
2018-09-18T05:45:12.580Z,1007.13
2018-09-18T05:46:12.560Z,1007.14
2018-09-18T05:47:12.546Z,1007.11
2018-09-18T05:48:12.566Z,1007.11
2018-09-18T05:49:12.519Z,1007.14
2018-09-18T05:50:12.494Z,1007.10
2018-09-18T05:51:12.486Z,1007.15
2018-09-18T05:52:12.465Z,1007.11
2018-09-18T05:53:12.443Z,1007.10
2018-09-18T05:54:12.435Z,1007.12
2018-09-18T05:55:12.423Z,1007.15
2018-09-18T05:56:12.393Z,1007.14
2018-09-18T05:57:12.388Z,1007.14
2018-09-18T05:58:12.359Z,1007.17
2018-09-18T05:59:12.348Z,1007.14
2018-09-18T06:00:12.325Z,1007.13
2018-09-18T06:01:12.307Z,1007.13
2018-09-18T06:02:12.359Z,1007.16
2018-09-18T06:03:12.274Z,1007.17
2018-09-18T06:04:12.261Z,1007.15
2018-09-18T06:05:12.244Z,1007.14
2018-09-18T06:06:12.226Z,1007.10
2018-09-18T06:07:12.207Z,1007.08
2018-09-18T06:08:12.193Z,1007.09
2018-09-18T06:09:12.175Z,1007.06
2018-09-18T06:10:12.164Z,1007.05
2018-09-18T06:11:12.138Z,1007.06
2018-09-18T06:12:12.127Z,1007.06
2018-09-18T06:13:12.107Z,1007.04
2018-09-18T06:14:12.090Z,1007.00
2018-09-18T06:15:12.074Z,1006.99
2018-09-18T06:16:12.059Z,1006.97
2018-09-18T06:17:12.045Z,1007.00
2018-09-18T06:18:12.028Z,1006.99
2018-09-18T06:19:12.123Z,1006.97
2018-09-18T06:20:11.992Z,1007.01
2018-09-18T06:21:11.977Z,1007.01
2018-09-18T06:22:11.962Z,1007.04
2018-09-18T06:23:11.941Z,1007.00
2018-09-18T06:24:11.922Z,1006.98
2018-09-18T06:25:11.912Z,1007.02
2018-09-18T06:26:11.908Z,1007.05
2018-09-18T06:27:11.872Z,1007.03
2018-09-18T06:28:11.862Z,1007.02
2018-09-18T06:29:11.840Z,1007.00
2018-09-18T06:30:11.828Z,1007.03
2018-09-18T06:31:11.813Z,1007.03
2018-09-18T06:32:11.791Z,1007.00
2018-09-18T06:33:11.775Z,1006.99
2018-09-18T06:34:11.756Z,1006.96
2018-09-18T06:35:11.742Z,1006.96
2018-09-18T06:36:11.726Z,1007.01
2018-09-18T06:37:11.707Z,1006.97
2018-09-18T06:38:11.694Z,1007.02
2018-09-18T06:39:11.684Z,1007.08
2018-09-18T06:40:11.810Z,1007.04
2018-09-18T06:41:11.642Z,1007.05
2018-09-18T06:42:11.628Z,1007.10
2018-09-18T06:43:11.616Z,1007.13
2018-09-18T06:44:11.609Z,1007.14
2018-09-18T06:45:11.579Z,1007.15
2018-09-18T06:46:11.566Z,1007.13
2018-09-18T06:47:11.544Z,1007.17
2018-09-18T06:48:11.527Z,1007.15
2018-09-18T06:49:11.514Z,1007.17
2018-09-18T06:50:11.495Z,1007.18
2018-09-18T06:51:11.480Z,1007.16
2018-09-18T06:52:11.461Z,1007.14
2018-09-18T06:53:11.445Z,1007.14
2018-09-18T06:54:11.429Z,1007.16
2018-09-18T06:55:11.412Z,1007.19
2018-09-18T06:56:11.468Z,1007.15
2018-09-18T06:57:11.393Z,1007.13
2018-09-18T06:58:11.362Z,1007.15
2018-09-18T06:59:11.440Z,1007.13
2018-09-18T07:00:11.330Z,1007.15
2018-09-18T07:01:11.315Z,1007.17
2018-09-18T07:02:11.302Z,1007.15
2018-09-18T07:03:11.284Z,1007.15
2018-09-18T07:04:11.265Z,1007.13
2018-09-18T07:05:11.257Z,1007.11
2018-09-18T07:06:11.235Z,1007.12
2018-09-18T07:07:11.225Z,1007.12
2018-09-18T07:08:11.208Z,1007.13
2018-09-18T07:09:11.188Z,1007.11
2018-09-18T07:10:11.167Z,1007.11
2018-09-18T07:11:11.153Z,1007.13
2018-09-18T07:12:11.134Z,1007.10
2018-09-18T07:13:11.124Z,1007.12
2018-09-18T07:14:11.104Z,1007.12
2018-09-18T07:15:11.254Z,1007.11
2018-09-18T07:16:11.080Z,1007.08
2018-09-18T07:17:11.059Z,1007.12
2018-09-18T07:18:11.162Z,1007.10
2018-09-18T07:19:11.023Z,1007.10
2018-09-18T07:20:11.008Z,1007.08
2018-09-18T07:21:10.989Z,1007.08
2018-09-18T07:22:10.984Z,1007.07
2018-09-18T07:23:10.966Z,1007.07
2018-09-18T07:24:10.948Z,1007.07
2018-09-18T07:25:10.929Z,1007.06
2018-09-18T07:26:10.909Z,1007.09
2018-09-18T07:27:10.892Z,1007.11
2018-09-18T07:28:10.878Z,1007.10
2018-09-18T07:29:10.862Z,1007.10
2018-09-18T07:30:10.846Z,1007.12
2018-09-18T07:31:10.831Z,1007.15
2018-09-18T07:32:10.820Z,1007.10
2018-09-18T07:33:10.804Z,1007.12
2018-09-18T07:34:10.783Z,1007.15
2018-09-18T07:35:10.766Z,1007.10
2018-09-18T07:36:10.819Z,1007.11
2018-09-18T07:37:10.740Z,1007.05
2018-09-18T07:38:10.718Z,1007.09
2018-09-18T07:39:10.705Z,1007.10
2018-09-18T07:40:10.686Z,1007.10
2018-09-18T07:41:10.779Z,1007.07
2018-09-18T07:42:10.654Z,1007.07
2018-09-18T07:43:10.645Z,1007.07
2018-09-18T07:44:10.630Z,1007.08
2018-09-18T07:45:10.709Z,1007.06
2018-09-18T07:46:10.595Z,1007.07
2018-09-18T07:47:10.584Z,1007.06
2018-09-18T07:48:10.560Z,1007.00
2018-09-18T07:49:10.544Z,1007.00
2018-09-18T07:50:10.539Z,1007.03
2018-09-18T07:51:10.520Z,1007.00
2018-09-18T07:52:10.514Z,1006.97
2018-09-18T07:53:10.497Z,1006.97
2018-09-18T07:54:10.472Z,1007.00
2018-09-18T07:55:10.454Z,1006.94
2018-09-18T07:56:10.438Z,1006.98
2018-09-18T07:57:10.423Z,1006.97
2018-09-18T07:58:10.414Z,1007.04
2018-09-18T07:59:10.392Z,1007.03
2018-09-18T08:00:10.378Z,1007.03
2018-09-18T08:01:10.518Z,1007.02
2018-09-18T08:02:10.349Z,1006.99
2018-09-18T08:03:10.388Z,1007.01
2018-09-18T08:04:10.315Z,1006.98
2018-09-18T08:05:10.310Z,1006.98
2018-09-18T08:06:10.287Z,1006.94
2018-09-18T08:07:10.282Z,1006.95
2018-09-18T08:08:10.254Z,1006.93
2018-09-18T08:09:10.250Z,1006.90
2018-09-18T08:10:10.225Z,1006.93
2018-09-18T08:11:10.214Z,1006.90
2018-09-18T08:12:10.197Z,1006.93
2018-09-18T08:13:10.184Z,1006.93
2018-09-18T08:14:10.173Z,1006.89
2018-09-18T08:15:10.152Z,1006.86
2018-09-18T08:16:10.146Z,1006.87
2018-09-18T08:17:10.123Z,1006.87
2018-09-18T08:18:10.118Z,1006.88
2018-09-18T08:19:10.126Z,1006.82
2018-09-18T08:20:10.084Z,1006.85
2018-09-18T08:21:10.068Z,1006.78
2018-09-18T08:22:10.124Z,1006.75
2018-09-18T08:23:10.047Z,1006.75
2018-09-18T08:24:10.021Z,1006.72
2018-09-18T08:25:10.037Z,1006.73
2018-09-18T08:26:09.995Z,1006.72
2018-09-18T08:27:10.008Z,1006.74
2018-09-18T08:28:09.964Z,1006.68
2018-09-18T08:29:09.951Z,1006.71
2018-09-18T08:30:09.938Z,1006.76
2018-09-18T08:31:09.922Z,1006.79
2018-09-18T08:32:09.909Z,1006.78
2018-09-18T08:33:09.903Z,1006.84
2018-09-18T08:34:09.887Z,1006.80
2018-09-18T08:35:09.873Z,1006.92
2018-09-18T08:36:09.853Z,1006.84
2018-09-18T08:37:09.839Z,1006.96
2018-09-18T08:38:09.834Z,1006.86
2018-09-18T08:39:09.839Z,1006.86
2018-09-18T08:40:10.023Z,1006.87
2018-09-18T08:41:09.787Z,1006.84
2018-09-18T08:42:09.771Z,1006.89
2018-09-18T08:43:09.761Z,1006.86
2018-09-18T08:44:09.754Z,1006.89
2018-09-18T08:45:09.734Z,1006.89
2018-09-18T08:46:09.763Z,1006.87
2018-09-18T08:47:09.757Z,1006.86
2018-09-18T08:48:09.701Z,1006.85
2018-09-18T08:49:09.682Z,1006.86
2018-09-18T08:50:09.680Z,1006.85
2018-09-18T08:51:09.677Z,1006.93
2018-09-18T08:52:09.789Z,1006.96
2018-09-18T08:53:09.640Z,1007.11
2018-09-18T08:54:09.626Z,1006.97
2018-09-18T08:55:09.605Z,1007.01
2018-09-18T08:56:09.592Z,1006.93
2018-09-18T08:57:09.597Z,1006.87
2018-09-18T08:58:09.593Z,1007.04
2018-09-18T08:59:09.593Z,1006.83
2018-09-18T09:00:09.551Z,1006.79
2018-09-18T09:01:09.539Z,1006.84
2018-09-18T09:02:09.531Z,1006.84
2018-09-18T09:03:09.591Z,1006.89
2018-09-18T09:04:09.504Z,1006.87
2018-09-18T09:05:09.551Z,1006.77
2018-09-18T09:06:09.543Z,1006.90
2018-09-18T09:07:09.470Z,1006.74
2018-09-18T09:08:09.607Z,1006.74
2018-09-18T09:09:09.526Z,1006.69
2018-09-18T09:10:09.577Z,1006.70
2018-09-18T09:11:09.424Z,1006.61
2018-09-18T09:12:09.413Z,1006.63
2018-09-18T09:13:09.401Z,1006.64
2018-09-18T09:14:09.395Z,1006.62
2018-09-18T09:15:09.469Z,1006.61
2018-09-18T09:16:09.369Z,1006.83
2018-09-18T09:17:09.359Z,1006.62
2018-09-18T09:18:09.434Z,1006.64
2018-09-18T09:19:09.335Z,1006.63
2018-09-18T09:20:09.351Z,1006.65
2018-09-18T09:21:09.487Z,1006.66
2018-09-18T09:22:09.407Z,1006.68
2018-09-18T09:23:09.320Z,1006.71
2018-09-18T09:24:09.284Z,1006.73
2018-09-18T09:25:09.271Z,1006.80
2018-09-18T09:26:09.265Z,1006.78
2018-09-18T09:27:09.282Z,1006.77
2018-09-18T09:28:09.260Z,1006.85
2018-09-18T09:29:09.227Z,1007.00
2018-09-18T09:30:09.335Z,1006.99
2018-09-18T09:31:09.210Z,1007.05
2018-09-18T09:32:09.312Z,1007.06
2018-09-18T09:33:09.184Z,1007.08
2018-09-18T09:34:09.198Z,1007.07
2018-09-18T09:35:09.171Z,1007.10
2018-09-18T09:36:09.158Z,1007.09
2018-09-18T09:37:09.190Z,1007.13
2018-09-18T09:38:11.793Z,1007.14
2018-09-18T09:39:09.137Z,1007.13
2018-09-18T09:40:09.133Z,1007.16
2018-09-18T09:41:09.117Z,1007.16
2018-09-18T09:42:09.115Z,1007.15
2018-09-18T09:43:09.100Z,1007.03
2018-09-18T09:44:09.091Z,1007.05
2018-09-18T09:45:11.817Z,1007.05
2018-09-18T09:46:09.080Z,1007.02
2018-09-18T09:47:09.077Z,1006.98
2018-09-18T09:48:09.073Z,1007.05
2018-09-18T09:49:09.077Z,1007.03
2018-09-18T09:50:09.061Z,1007.12
2018-09-18T09:51:09.159Z,1007.02
2018-09-18T09:52:09.058Z,1007.01
2018-09-18T09:53:10.467Z,1007.08
2018-09-18T09:54:09.043Z,1007.10
2018-09-18T09:55:09.042Z,1007.05
2018-09-18T09:56:09.035Z,1007.10
2018-09-18T09:57:09.035Z,1007.03
2018-09-18T09:58:09.039Z,1007.01
2018-09-18T09:59:09.037Z,1007.07
2018-09-18T10:00:09.046Z,1007.05
2018-09-18T10:01:09.022Z,1007.00
2018-09-18T10:02:09.022Z,1006.99
2018-09-18T10:03:09.022Z,1006.96
2018-09-18T10:04:09.015Z,1006.77
2018-09-18T10:05:09.018Z,1007.01
2018-09-18T10:06:09.010Z,1007.03
2018-09-18T10:07:09.018Z,1006.98
2018-09-18T10:08:09.011Z,1006.96
2018-09-18T10:09:09.007Z,1006.96
2018-09-18T10:10:09.005Z,1006.97
2018-09-18T10:11:09.012Z,1006.93
2018-09-18T10:12:09.001Z,1006.89
2018-09-18T10:13:09.011Z,1006.89
2018-09-18T10:14:09.004Z,1006.92
2018-09-18T10:15:09.025Z,1006.83
2018-09-18T10:16:08.999Z,1006.88
2018-09-18T10:17:08.997Z,1006.86
2018-09-18T10:18:09.097Z,1006.88
2018-09-18T10:19:08.997Z,1006.84
2018-09-18T10:20:08.997Z,1006.87
2018-09-18T10:21:08.994Z,1006.82
2018-09-18T10:22:08.994Z,1006.82
2018-09-18T10:23:09.026Z,1006.87
2018-09-18T10:24:09.011Z,1006.84
2018-09-18T10:25:09.015Z,1006.80
2018-09-18T10:26:09.161Z,1006.78
2018-09-18T10:27:09.143Z,1006.87
2018-09-18T10:28:09.001Z,1006.82
2018-09-18T10:29:08.999Z,1006.81
2018-09-18T10:30:08.993Z,1006.75
2018-09-18T10:31:09.027Z,1006.73
2018-09-18T10:32:09.003Z,1006.87
2018-09-18T10:33:09.007Z,1006.85
2018-09-18T10:34:08.998Z,1006.81
2018-09-18T10:35:09.008Z,1006.85
2018-09-18T10:36:08.989Z,1006.80
2018-09-18T10:37:09.024Z,1006.75
2018-09-18T10:38:08.990Z,1006.73
2018-09-18T10:39:09.026Z,1006.72
2018-09-18T10:40:09.034Z,1006.69
2018-09-18T10:41:09.112Z,1006.71
2018-09-18T10:42:09.041Z,1006.68
2018-09-18T10:43:08.992Z,1006.71
2018-09-18T10:44:08.993Z,1006.64
2018-09-18T10:45:08.996Z,1006.65
2018-09-18T10:46:08.986Z,1006.65
2018-09-18T10:47:08.988Z,1006.66
2018-09-18T10:48:09.007Z,1006.67
2018-09-18T10:49:09.002Z,1006.70
2018-09-18T10:50:09.000Z,1006.67
2018-09-18T10:51:08.986Z,1006.80
2018-09-18T10:52:08.988Z,1006.79
2018-09-18T10:53:08.985Z,1006.81
2018-09-18T10:54:08.994Z,1006.80
2018-09-18T10:55:09.000Z,1006.78
2018-09-18T10:56:08.986Z,1006.80
2018-09-18T10:57:08.993Z,1006.78
2018-09-18T10:58:08.991Z,1006.86
2018-09-18T10:59:08.987Z,1006.90
2018-09-18T11:00:08.984Z,1006.93
2018-09-18T11:01:08.997Z,1006.98
2018-09-18T11:02:09.119Z,1007.01
2018-09-18T11:03:09.016Z,1006.98
2018-09-18T11:04:08.985Z,1006.98
2018-09-18T11:05:09.118Z,1006.95
2018-09-18T11:06:09.008Z,1007.00
2018-09-18T11:07:09.085Z,1007.03
2018-09-18T11:08:09.023Z,1007.02
2018-09-18T11:09:08.993Z,1007.04
2018-09-18T11:10:09.069Z,1007.02
2018-09-18T11:11:09.004Z,1007.03
2018-09-18T11:12:08.987Z,1007.00
2018-09-18T11:13:09.035Z,1006.93
2018-09-18T11:14:09.009Z,1006.97
2018-09-18T11:15:08.984Z,1007.11
2018-09-18T11:16:09.198Z,1007.06
2018-09-18T11:17:09.003Z,1007.01
2018-09-18T11:18:09.125Z,1007.01
2018-09-18T11:19:08.981Z,1007.03
2018-09-18T11:20:08.979Z,1007.09
2018-09-18T11:21:08.984Z,1007.08
2018-09-18T11:22:09.011Z,1007.05
2018-09-18T11:23:08.987Z,1007.10
2018-09-18T11:24:09.070Z,1007.08
2018-09-18T11:25:09.027Z,1006.95
2018-09-18T11:26:08.997Z,1006.94
2018-09-18T11:27:08.984Z,1007.03
2018-09-18T11:28:08.996Z,1007.04
2018-09-18T11:29:08.978Z,1007.05
2018-09-18T11:30:08.983Z,1007.06
2018-09-18T11:31:08.997Z,1007.05
2018-09-18T11:32:08.981Z,1007.07
2018-09-18T11:33:08.969Z,1007.00
2018-09-18T11:34:08.970Z,1007.08
2018-09-18T11:35:08.964Z,1007.03
2018-09-18T11:36:08.963Z,1007.00
2018-09-18T11:37:08.961Z,1007.03
2018-09-18T11:38:08.973Z,1006.99
2018-09-18T11:39:08.964Z,1006.96
2018-09-18T11:40:08.958Z,1006.90
2018-09-18T11:41:08.999Z,1006.94
2018-09-18T11:42:08.950Z,1006.97
2018-09-18T11:43:11.571Z,1006.87
2018-09-18T11:44:09.064Z,1006.83
2018-09-18T11:45:08.941Z,1006.97
2018-09-18T11:46:08.940Z,1006.76
2018-09-18T11:47:08.941Z,1006.36
2018-09-18T11:48:08.946Z,1006.23
2018-09-18T11:49:08.938Z,1006.17
2018-09-18T11:50:08.942Z,1006.14
2018-09-18T11:51:08.942Z,1006.14
2018-09-18T11:52:08.927Z,1006.15
2018-09-18T11:53:08.920Z,1006.20
2018-09-18T11:54:08.920Z,1006.22
2018-09-18T11:55:08.917Z,1006.19
2018-09-18T11:56:08.907Z,1006.16
2018-09-18T11:57:08.992Z,1006.17
2018-09-18T11:58:08.900Z,1006.13
2018-09-18T11:59:08.899Z,1006.21
2018-09-18T12:00:08.925Z,1006.25
2018-09-18T12:01:08.900Z,1006.23
2018-09-18T12:02:08.885Z,1006.20
2018-09-18T12:03:08.942Z,1006.18
2018-09-18T12:04:08.874Z,1006.15
2018-09-18T12:05:08.950Z,1006.17